createdAt,value
2022-10-14T00:02:25.445Z,101295.00
2022-10-14T00:04:54.646Z,101284.47
2022-10-14T00:07:23.986Z,101285.56
2022-10-14T00:09:53.213Z,101285.44
2022-10-14T00:12:22.193Z,101281.00
2022-10-14T00:14:52.499Z,101279.34
2022-10-14T00:17:21.612Z,101280.16
2022-10-14T00:19:51.953Z,101277.53
2022-10-14T00:22:21.019Z,101282.78
2022-10-14T00:24:50.005Z,101276.72
2022-10-14T00:27:19.318Z,101275.91
2022-10-14T00:29:48.712Z,101280.31
2022-10-14T00:32:19.128Z,101277.69
2022-10-14T00:34:48.044Z,101275.16
2022-10-14T00:37:17.067Z,101283.91
2022-10-14T00:39:46.061Z,101281.16
2022-10-14T00:42:16.381Z,101277.69
2022-10-14T00:45:06.391Z,101286.41
2022-10-14T00:47:40.059Z,101282.00
2022-10-14T00:50:12.852Z,101276.72
2022-10-14T00:52:41.930Z,101281.28
2022-10-14T00:55:15.234Z,101285.44
2022-10-14T00:57:45.204Z,101280.31
2022-10-14T01:00:17.118Z,101285.56
2022-10-14T01:02:47.999Z,101285.69
2022-10-14T01:05:20.875Z,101281.28
2022-10-14T01:08:03.878Z,101275.16
2022-10-14T01:10:42.641Z,101277.81
2022-10-14T01:13:23.261Z,101270.88
2022-10-14T01:16:00.906Z,101273.38
2022-10-14T01:18:42.964Z,101264.66
2022-10-14T01:21:22.318Z,101261.06
2022-10-14T01:24:27.125Z,101265.38
2022-10-14T01:27:11.636Z,101267.84
2022-10-14T01:30:07.090Z,101264.28
2022-10-14T01:32:43.903Z,101262.59
2022-10-14T01:35:20.550Z,101254.84
2022-10-14T01:37:57.138Z,101258.44
2022-10-14T01:40:33.338Z,101260.13
2022-10-14T01:43:04.832Z,101251.38
2022-10-14T01:45:38.950Z,101259.28
2022-10-14T01:48:08.827Z,101252.34
2022-10-14T01:50:40.100Z,101254.84
2022-10-14T01:53:12.391Z,101256.66
2022-10-14T01:55:46.913Z,101256.66
2022-10-14T01:58:19.215Z,101251.38
2022-10-14T02:00:49.718Z,101251.38
2022-10-14T02:03:18.816Z,101248.75
2022-10-14T02:05:53.404Z,101246.13
2022-10-14T02:08:31.689Z,101247.09
2022-10-14T02:11:09.943Z,101244.56
2022-10-14T02:13:53.724Z,101244.56
2022-10-14T02:16:34.301Z,101247.09
2022-10-14T02:19:10.188Z,101240.16
2022-10-14T02:21:47.502Z,101235.03
2022-10-14T02:24:21.338Z,101240.16
2022-10-14T02:26:52.874Z,101241.94
2022-10-14T02:29:23.516Z,101235.88
2022-10-14T02:31:57.788Z,101236.00
2022-10-14T02:34:27.754Z,101241.25
2022-10-14T02:36:57.184Z,101243.06
2022-10-14T02:39:31.362Z,101240.16
2022-10-14T02:42:00.593Z,101238.50
2022-10-14T02:44:29.583Z,101236.84
2022-10-14T02:47:00.711Z,101236.13
2022-10-14T02:49:31.846Z,101236.13
2022-10-14T02:52:00.768Z,101239.59
2022-10-14T02:54:29.722Z,101243.16
2022-10-14T02:57:00.029Z,101236.25
2022-10-14T02:59:29.037Z,101232.91
2022-10-14T03:02:00.807Z,101240.81
2022-10-14T03:04:31.656Z,101240.81
2022-10-14T03:07:00.641Z,101240.81
2022-10-14T03:09:29.827Z,101239.00
2022-10-14T03:12:00.512Z,101234.59
2022-10-14T03:14:30.356Z,101238.16
2022-10-14T03:17:01.106Z,101240.94
2022-10-14T03:19:33.307Z,101232.22
2022-10-14T03:22:02.847Z,101233.91
2022-10-14T03:24:32.588Z,101226.13
2022-10-14T03:27:25.205Z,101229.59
2022-10-14T03:29:59.197Z,101223.50
2022-10-14T03:32:29.533Z,101222.53
2022-10-14T03:35:24.847Z,101226.00
2022-10-14T03:37:59.421Z,101233.75
2022-10-14T03:40:32.779Z,101233.63
2022-10-14T03:43:04.386Z,101239.16
2022-10-14T03:45:44.464Z,101232.91
2022-10-14T03:48:15.976Z,101233.75
2022-10-14T03:50:44.909Z,101231.13
2022-10-14T03:53:14.312Z,101234.59
2022-10-14T03:55:45.276Z,101229.34
2022-10-14T03:58:15.165Z,101224.75
2022-10-14T04:00:50.841Z,101231.00
2022-10-14T04:03:50.975Z,101230.16
2022-10-14T04:06:20.268Z,101225.88
2022-10-14T04:08:49.480Z,101224.91
2022-10-14T04:11:27.808Z,101216.31
2022-10-14T04:14:03.156Z,101217.28
2022-10-14T04:16:34.405Z,101225.03
2022-10-14T04:19:10.233Z,101219.78
2022-10-14T04:21:39.157Z,101220.75
2022-10-14T04:24:09.849Z,101212.72
2022-10-14T04:26:46.719Z,101204.16
2022-10-14T04:29:23.734Z,101209.41
2022-10-14T04:32:02.777Z,101204.25
2022-10-14T04:34:33.769Z,101201.63
2022-10-14T04:37:03.237Z,101198.16
2022-10-14T04:39:58.562Z,101190.28
2022-10-14T04:42:28.192Z,101189.59
2022-10-14T04:45:02.043Z,101181.94
2022-10-14T04:47:48.493Z,101192.59
2022-10-14T04:50:22.061Z,101187.47
2022-10-14T04:53:13.459Z,101192.59
2022-10-14T04:55:54.804Z,101188.31
2022-10-14T04:58:23.966Z,101194.41
2022-10-14T05:00:55.825Z,101189.97
2022-10-14T05:03:32.011Z,101188.19
2022-10-14T05:06:02.820Z,101191.66
2022-10-14T05:08:32.260Z,101190.53
2022-10-14T05:11:03.257Z,101186.97
2022-10-14T05:13:44.731Z,101188.88
2022-10-14T05:16:13.890Z,101191.50
2022-10-14T05:18:42.947Z,101187.09
2022-10-14T05:21:15.166Z,101183.63
2022-10-14T05:24:07.151Z,101185.41
2022-10-14T05:26:38.631Z,101182.78
2022-10-14T05:29:12.646Z,101185.28
2022-10-14T05:31:42.743Z,101193.19
2022-10-14T05:34:29.437Z,101183.63
2022-10-14T05:37:00.566Z,101185.56
2022-10-14T05:39:33.449Z,101182.78
2022-10-14T05:42:02.501Z,101180.31
2022-10-14T05:44:32.583Z,101182.09
2022-10-14T05:47:01.581Z,101184.84
2022-10-14T05:49:31.117Z,101190.94
2022-10-14T05:52:04.507Z,101175.28
2022-10-14T05:54:34.964Z,101178.63
2022-10-14T05:57:06.310Z,101189.13
2022-10-14T05:59:35.597Z,101180.31
2022-10-14T06:02:04.662Z,101175.88
2022-10-14T06:04:36.147Z,101179.59
2022-10-14T06:07:09.217Z,101177.78
2022-10-14T06:09:38.555Z,101181.25
2022-10-14T06:12:08.000Z,101178.63
2022-10-14T06:14:38.589Z,101175.72
2022-10-14T06:17:08.166Z,101180.31
2022-10-14T06:19:37.325Z,101176.00
2022-10-14T06:22:07.622Z,101174.22
2022-10-14T06:24:37.265Z,101175.88
2022-10-14T06:27:06.530Z,101173.09
2022-10-14T06:29:38.091Z,101169.63
2022-10-14T06:32:07.557Z,101174.78
2022-10-14T06:34:37.036Z,101171.88
2022-10-14T06:37:07.390Z,101170.09
2022-10-14T06:39:36.386Z,101172.44
2022-10-14T06:42:09.480Z,101171.38
2022-10-14T06:44:41.685Z,101167.75
2022-10-14T06:47:10.606Z,101167.53
2022-10-14T06:49:40.020Z,101164.19
2022-10-14T06:52:10.634Z,101173.59
2022-10-14T06:54:40.989Z,101168.09
2022-10-14T06:57:11.488Z,101160.06
2022-10-14T06:59:40.507Z,101156.34
2022-10-14T07:02:10.764Z,101159.81
2022-10-14T07:04:41.058Z,101158.00
2022-10-14T07:07:11.670Z,101167.56
2022-10-14T07:09:40.619Z,101163.00
2022-10-14T07:12:09.634Z,101161.91
2022-10-14T07:14:38.540Z,101168.00
2022-10-14T07:17:09.087Z,101171.47
2022-10-14T07:19:38.011Z,101163.44
2022-10-14T07:22:07.153Z,101172.16
2022-10-14T07:24:37.569Z,101167.75
2022-10-14T07:27:06.635Z,101167.84
2022-10-14T07:29:35.569Z,101168.69
2022-10-14T07:32:04.997Z,101165.09
2022-10-14T07:34:34.668Z,101158.75
2022-10-14T07:37:03.966Z,101165.41
2022-10-14T07:39:33.883Z,101165.28
2022-10-14T07:42:04.315Z,101169.44
2022-10-14T07:44:33.274Z,101170.03
2022-10-14T07:47:03.168Z,101168.91
2022-10-14T07:49:32.306Z,101161.72
2022-10-14T07:52:01.325Z,101179.16
2022-10-14T07:54:32.298Z,101173.91
2022-10-14T07:57:02.947Z,101169.53
2022-10-14T07:59:31.910Z,101170.88
2022-10-14T08:02:01.046Z,101171.72
2022-10-14T08:04:30.138Z,101173.97
2022-10-14T08:06:59.232Z,101180.06
2022-10-14T08:09:28.300Z,101184.47
2022-10-14T08:11:57.328Z,101181.13
2022-10-14T08:14:27.973Z,101187.50
2022-10-14T08:16:57.002Z,101189.03
2022-10-14T08:19:26.198Z,101184.88
2022-10-14T08:21:55.166Z,101186.44
2022-10-14T08:24:24.298Z,101176.19
2022-10-14T08:26:55.066Z,101179.91
2022-10-14T08:29:24.543Z,101181.31
2022-10-14T08:31:55.361Z,101188.34
2022-10-14T08:34:24.606Z,101184.88
2022-10-14T08:36:53.828Z,101177.59
2022-10-14T08:39:23.350Z,101185.88
2022-10-14T08:42:11.369Z,101178.28
2022-10-14T08:44:46.553Z,101167.88
2022-10-14T08:47:21.492Z,101185.88
2022-10-14T08:50:01.457Z,101178.44
2022-10-14T08:52:37.715Z,101176.41
2022-10-14T08:55:19.152Z,101169.47
2022-10-14T08:57:53.276Z,101181.13
2022-10-14T09:00:22.825Z,101173.78
2022-10-14T09:02:53.649Z,101168.53
2022-10-14T09:05:26.068Z,101164.97
2022-10-14T09:07:58.647Z,101160.00
2022-10-14T09:10:33.010Z,101150.25
2022-10-14T09:13:10.605Z,101152.88
2022-10-14T09:15:43.963Z,101139.13
2022-10-14T09:18:23.917Z,101138.19
2022-10-14T09:20:54.843Z,101137.53
2022-10-14T09:23:25.637Z,101139.88
2022-10-14T09:26:00.057Z,101138.72
2022-10-14T09:28:38.205Z,101136.97
2022-10-14T09:31:11.959Z,101138.31
2022-10-14T09:33:43.781Z,101137.50
2022-10-14T09:36:17.353Z,101135.84
2022-10-14T09:38:56.271Z,101135.00
2022-10-14T09:41:31.295Z,101128.13
2022-10-14T09:44:18.601Z,101137.06
2022-10-14T09:46:54.222Z,101129.19
2022-10-14T09:49:42.141Z,101129.84
2022-10-14T09:52:23.406Z,101135.84
2022-10-14T09:54:57.289Z,101128.28
2022-10-14T09:57:26.860Z,101133.91
2022-10-14T10:00:00.575Z,101126.88
2022-10-14T10:02:42.013Z,101125.31
2022-10-14T10:05:24.181Z,101129.69
2022-10-14T10:08:06.737Z,101130.94
2022-10-14T10:10:36.083Z,101114.56
2022-10-14T10:13:05.966Z,101105.19
2022-10-14T10:15:34.979Z,101111.44
2022-10-14T10:18:18.940Z,101110.66
2022-10-14T10:21:06.530Z,101111.41
2022-10-14T10:23:37.163Z,101118.63
2022-10-14T10:26:22.976Z,101109.88
2022-10-14T10:28:52.196Z,101107.53
2022-10-14T10:31:47.096Z,101107.72
2022-10-14T10:34:40.030Z,101095.00
2022-10-14T10:37:23.582Z,101096.34
2022-10-14T10:40:20.089Z,101097.13
2022-10-14T10:43:08.166Z,101097.81
2022-10-14T10:45:51.046Z,101096.78
2022-10-14T10:48:29.059Z,101094.84
2022-10-14T10:51:03.157Z,101091.75
2022-10-14T10:53:51.324Z,101089.25
2022-10-14T10:56:33.447Z,101078.19
2022-10-14T10:59:26.503Z,101088.25
2022-10-14T11:02:14.339Z,101093.56
2022-10-14T11:04:48.749Z,101082.47
2022-10-14T11:07:42.478Z,101083.28
2022-10-14T11:10:43.102Z,101077.31
2022-10-14T11:13:23.176Z,101078.66
2022-10-14T11:15:58.222Z,101074.16
2022-10-14T11:18:46.280Z,101072.78
2022-10-14T11:21:24.359Z,101080.22
2022-10-14T11:24:01.983Z,101074.00
2022-10-14T11:26:55.786Z,101074.84
2022-10-14T11:29:40.607Z,101078.94
2022-10-14T11:32:18.688Z,101075.91
2022-10-14T11:34:58.622Z,101075.22
2022-10-14T11:37:39.954Z,101077.72
2022-10-14T11:40:17.074Z,101079.75
2022-10-14T11:43:08.780Z,101078.34
2022-10-14T11:45:52.191Z,101072.56
2022-10-14T11:48:31.014Z,101069.19
2022-10-14T11:51:08.916Z,101077.06
2022-10-14T11:53:45.844Z,101068.06
2022-10-14T11:56:30.347Z,101071.78
2022-10-14T11:59:04.382Z,101069.69
2022-10-14T12:01:52.090Z,101065.38
2022-10-14T12:04:28.149Z,101068.25
2022-10-14T12:07:03.551Z,101055.09
2022-10-14T12:09:39.986Z,101060.28
2022-10-14T12:12:12.700Z,101058.84
2022-10-14T12:14:48.265Z,101060.38
2022-10-14T12:17:21.479Z,101058.09
2022-10-14T12:19:52.179Z,101054.97
2022-10-14T12:22:25.606Z,101040.69
2022-10-14T12:24:56.138Z,101056.97
2022-10-14T12:27:28.359Z,101055.09
2022-10-14T12:29:59.148Z,101045.66
2022-10-14T12:32:30.641Z,101049.50
2022-10-14T12:35:02.170Z,101049.56
2022-10-14T12:40:30.911Z,101033.78
2022-10-14T12:43:18.313Z,101031.03
2022-10-14T12:46:12.995Z,101033.59
2022-10-14T12:48:52.668Z,101018.47
2022-10-14T12:51:24.426Z,101018.38
2022-10-14T12:54:05.940Z,101021.34
2022-10-14T12:56:43.364Z,101021.63
2022-10-14T12:59:23.870Z,101019.78
2022-10-14T13:02:00.308Z,101015.03
2022-10-14T13:04:30.022Z,101018.81
2022-10-14T13:07:40.214Z,101014.56
2022-10-14T13:10:47.014Z,101004.38
2022-10-14T13:13:50.110Z,101009.06
2022-10-14T13:17:00.389Z,101001.47
2022-10-14T13:19:46.682Z,100997.28
2022-10-14T13:22:41.666Z,101011.78
2022-10-14T13:25:22.282Z,101005.44
2022-10-14T13:27:59.104Z,101010.56
2022-10-14T13:30:36.404Z,101002.97
2022-10-14T13:33:16.950Z,101000.66
2022-10-14T13:35:55.917Z,101003.91
2022-10-14T13:38:25.595Z,100984.22
2022-10-14T13:40:57.573Z,100989.50
2022-10-14T13:43:30.415Z,100986.63
2022-10-14T13:46:07.935Z,100983.31
2022-10-14T13:48:44.103Z,100977.88
2022-10-14T13:51:42.895Z,100974.31
2022-10-14T13:54:18.209Z,100967.25
2022-10-14T13:57:31.533Z,100962.59
2022-10-14T14:02:48.109Z,100958.31
2022-10-14T14:05:23.546Z,100952.00
2022-10-14T14:11:14.477Z,100946.94
2022-10-14T14:14:00.249Z,100944.34
2022-10-14T14:16:36.145Z,100938.38
2022-10-14T14:19:09.964Z,100932.13
2022-10-14T14:21:40.759Z,100928.91
2022-10-14T14:24:19.573Z,100926.50
2022-10-14T14:26:56.130Z,100919.91
2022-10-14T14:29:29.636Z,100921.78
2022-10-14T14:32:08.411Z,100916.06
2022-10-14T14:34:40.221Z,100913.28
2022-10-14T14:37:37.067Z,100913.75
2022-10-14T14:40:15.057Z,100911.91
2022-10-14T14:42:44.775Z,100904.22
2022-10-14T14:45:19.530Z,100903.56
2022-10-14T14:47:52.185Z,100902.94
2022-10-14T14:50:30.889Z,100891.13
2022-10-14T14:53:04.815Z,100889.97
2022-10-14T14:55:47.193Z,100881.97
2022-10-14T14:58:27.779Z,100889.88
2022-10-14T15:00:57.623Z,100886.94
2022-10-14T15:03:28.767Z,100881.53
2022-10-14T15:06:01.136Z,100882.25
2022-10-14T15:08:36.587Z,100886.81
2022-10-14T15:11:06.442Z,100881.72
2022-10-14T15:13:49.031Z,100882.16
2022-10-14T15:16:33.414Z,100874.41
2022-10-14T15:19:27.180Z,100868.75
2022-10-14T15:22:25.446Z,100871.81
2022-10-14T15:25:01.120Z,100866.00
2022-10-14T15:27:52.847Z,100864.19
2022-10-14T15:30:27.072Z,100856.28
2022-10-14T15:32:59.316Z,100852.63
2022-10-14T15:35:29.400Z,100854.47
2022-10-14T15:38:06.716Z,100858.81
2022-10-14T15:40:39.805Z,100855.88
2022-10-14T15:43:17.401Z,100850.63
2022-10-14T15:46:12.674Z,100851.78
2022-10-14T15:48:46.945Z,100837.63
2022-10-14T15:51:20.921Z,100842.50
2022-10-14T15:53:50.232Z,100837.81
2022-10-14T15:56:21.144Z,100828.91
2022-10-14T15:58:50.427Z,100828.38
2022-10-14T16:01:21.685Z,100818.00
2022-10-14T16:03:51.848Z,100817.16
2022-10-14T16:06:22.694Z,100815.63
2022-10-14T16:08:52.075Z,100811.38
2022-10-14T16:11:26.662Z,100813.31
2022-10-14T16:13:56.181Z,100811.94
2022-10-14T16:16:29.965Z,100807.50
2022-10-14T16:19:02.298Z,100798.63
2022-10-14T16:21:31.490Z,100797.81
2022-10-14T16:24:02.214Z,100807.63
2022-10-14T16:26:32.734Z,100796.75
2022-10-14T16:29:03.648Z,100795.19
2022-10-14T16:31:32.618Z,100793.00
2022-10-14T16:34:01.858Z,100785.28
2022-10-14T16:36:31.062Z,100786.09
2022-10-14T16:39:00.425Z,100786.53
2022-10-14T16:41:31.843Z,100791.09
2022-10-14T16:44:00.748Z,100786.13
2022-10-14T16:46:43.800Z,100784.19
2022-10-14T16:49:12.779Z,100788.19
2022-10-14T16:51:42.868Z,100788.34
2022-10-14T16:54:12.430Z,100784.19
2022-10-14T16:56:56.894Z,100780.72
2022-10-14T16:59:26.325Z,100779.78
2022-10-14T17:01:55.889Z,100772.84
2022-10-14T17:04:25.283Z,100765.78
2022-10-14T17:07:02.597Z,100772.66
2022-10-14T17:09:31.504Z,100774.63
2022-10-14T17:12:08.107Z,100762.59
2022-10-14T17:14:40.370Z,100760.78
2022-10-14T17:17:10.401Z,100763.81
2022-10-14T17:19:40.608Z,100760.88
2022-10-14T17:22:09.844Z,100760.34
2022-10-14T17:24:38.925Z,100765.78
2022-10-14T17:27:12.871Z,100766.75
2022-10-14T17:29:42.475Z,100766.97
2022-10-14T17:32:11.557Z,100765.47
2022-10-14T17:34:40.609Z,100753.69
2022-10-14T17:39:43.719Z,100751.59
2022-10-14T17:42:14.223Z,100748.81
2022-10-14T17:44:45.482Z,100745.13
2022-10-14T17:47:14.603Z,100742.81
2022-10-14T17:49:43.601Z,100725.75
2022-10-14T17:52:12.777Z,100729.78
2022-10-14T17:54:41.841Z,100719.25
2022-10-14T17:57:10.987Z,100711.97
2022-10-14T17:59:41.448Z,100717.09
2022-10-14T18:02:17.348Z,100713.63
2022-10-14T18:04:48.119Z,100704.91
2022-10-14T18:07:18.809Z,100705.69
2022-10-14T18:09:47.753Z,100711.66
2022-10-14T18:12:17.201Z,100703.44
2022-10-14T18:14:47.932Z,100703.28
2022-10-14T18:17:16.967Z,100697.84
2022-10-14T18:19:49.742Z,100694.47
2022-10-14T18:22:21.290Z,100689.69
2022-10-14T18:24:50.356Z,100689.81
2022-10-14T18:27:19.521Z,100685.53
2022-10-14T18:29:50.057Z,100678.91
2022-10-14T18:32:19.268Z,100688.66
2022-10-14T18:34:48.278Z,100689.13
2022-10-14T18:37:17.285Z,100695.84
2022-10-14T18:39:46.262Z,100693.88
2022-10-14T18:42:18.459Z,100692.75
2022-10-14T18:44:51.376Z,100686.13
2022-10-14T18:47:20.435Z,100684.16
2022-10-14T18:49:50.931Z,100674.78
2022-10-14T18:52:21.858Z,100679.63
2022-10-14T18:54:51.065Z,100674.13
2022-10-14T18:57:20.798Z,100672.59
2022-10-14T18:59:52.775Z,100674.06
2022-10-14T19:02:22.853Z,100672.78
2022-10-14T19:04:52.575Z,100667.34
2022-10-14T19:07:21.537Z,100672.59
2022-10-14T19:09:52.916Z,100669.19
2022-10-14T19:12:42.801Z,100663.91
2022-10-14T19:15:13.389Z,100665.41
2022-10-14T19:17:42.842Z,100659.16
2022-10-14T19:20:12.102Z,100657.63
2022-10-14T19:22:44.802Z,100662.38
2022-10-14T19:25:13.902Z,100663.00
2022-10-14T19:27:42.918Z,100660.28
2022-10-14T19:30:13.796Z,100656.59
2022-10-14T19:32:42.718Z,100649.97
2022-10-14T19:35:11.711Z,100645.97
2022-10-14T19:37:40.734Z,100645.97
2022-10-14T19:40:10.447Z,100638.06
2022-10-14T19:42:39.350Z,100634.09
2022-10-14T19:45:08.912Z,100633.25
2022-10-14T19:47:39.281Z,100627.47
2022-10-14T19:50:09.345Z,100617.91
2022-10-14T19:52:38.589Z,100623.31
2022-10-14T19:55:08.889Z,100619.84
2022-10-14T19:57:37.895Z,100608.66
2022-10-14T20:00:08.113Z,100603.38
2022-10-14T20:05:07.919Z,100593.16
2022-10-14T20:07:36.954Z,100585.28
2022-10-14T20:10:06.991Z,100572.41
2022-10-14T20:12:35.987Z,100569.78
2022-10-14T20:15:05.662Z,100568.13
2022-10-14T20:17:34.856Z,100570.59
2022-10-14T20:20:05.862Z,100567.97
2022-10-14T20:22:34.865Z,100572.94
2022-10-14T20:25:04.170Z,100570.16
2022-10-14T20:27:35.395Z,100560.06
2022-10-14T20:30:04.806Z,100557.44
2022-10-14T20:32:33.937Z,100562.56
2022-10-14T20:35:04.737Z,100558.97
2022-10-14T20:37:34.233Z,100562.44
2022-10-14T20:40:03.646Z,100559.78
2022-10-14T20:42:36.321Z,100565.06
2022-10-14T20:45:06.524Z,100565.06
2022-10-14T20:47:35.634Z,100561.28
2022-10-14T20:50:07.848Z,100561.94
2022-10-14T20:52:36.895Z,100556.31
2022-10-14T20:55:06.665Z,100548.56
2022-10-14T20:57:35.700Z,100555.31
2022-10-14T21:00:07.151Z,100552.16
2022-10-14T21:02:36.456Z,100549.53
2022-10-14T21:05:07.548Z,100551.19
2022-10-14T21:07:36.561Z,100551.06
2022-10-14T21:10:06.810Z,100551.06
2022-10-14T21:12:35.757Z,100545.13
2022-10-14T21:15:05.290Z,100539.00
2022-10-14T21:17:34.452Z,100540.53
2022-10-14T21:20:03.539Z,100540.38
2022-10-14T21:22:34.073Z,100537.75
2022-10-14T21:25:03.198Z,100539.84
2022-10-14T21:27:32.328Z,100538.88
2022-10-14T21:30:01.271Z,100530.16
2022-10-14T21:32:30.259Z,100530.84
2022-10-14T21:34:59.494Z,100524.75
2022-10-14T21:37:28.657Z,100514.22
2022-10-14T21:40:06.481Z,100511.59
2022-10-14T21:42:35.466Z,100505.66
2022-10-14T21:45:04.849Z,100502.03
2022-10-14T21:47:34.480Z,100502.03
2022-10-14T21:50:03.710Z,100497.63
2022-10-14T21:52:32.700Z,100500.38
2022-10-14T21:55:03.685Z,100494.97
2022-10-14T21:57:33.108Z,100494.16
2022-10-14T22:00:02.096Z,100492.34
2022-10-14T22:02:34.365Z,100491.38
2022-10-14T22:05:03.457Z,100494.00
2022-10-14T22:07:35.372Z,100486.25
2022-10-14T22:10:26.574Z,100489.03
2022-10-14T22:12:57.674Z,100496.91
2022-10-14T22:15:26.996Z,100486.56
2022-10-14T22:17:55.942Z,100488.06
2022-10-14T22:20:24.836Z,100487.09
2022-10-14T22:22:54.773Z,100488.91
2022-10-14T22:25:25.038Z,100488.06
2022-10-14T22:27:54.022Z,100487.09
2022-10-14T22:30:23.066Z,100484.47
2022-10-14T22:32:52.005Z,100479.03
2022-10-14T22:35:21.876Z,100488.59
2022-10-14T22:37:51.353Z,100471.13
2022-10-14T22:40:20.655Z,100474.59
2022-10-14T22:42:54.255Z,100471.97
2022-10-14T22:45:23.234Z,100465.72
2022-10-14T22:47:52.439Z,100467.41
2022-10-14T22:50:21.372Z,100459.63
2022-10-14T22:52:50.340Z,100460.47
2022-10-14T22:55:19.460Z,100456.03
2022-10-14T22:57:49.767Z,100457.84
2022-10-14T23:00:18.926Z,100455.06
2022-10-14T23:02:47.935Z,100454.91
2022-10-14T23:05:16.961Z,100454.06
2022-10-14T23:07:45.935Z,100455.59
2022-10-14T23:10:15.018Z,100446.88
2022-10-14T23:12:43.960Z,100453.78
2022-10-14T23:15:14.306Z,100454.75
2022-10-14T23:17:43.244Z,100447.53
2022-10-14T23:20:12.782Z,100441.28
2022-10-14T23:22:41.744Z,100445.56
2022-10-14T23:25:12.585Z,100450.00
2022-10-14T23:27:41.748Z,100446.41
2022-10-14T23:30:11.619Z,100442.81
2022-10-14T23:32:42.122Z,100443.47
2022-10-14T23:35:11.435Z,100442.81
2022-10-14T23:37:40.445Z,100444.28
2022-10-14T23:40:10.824Z,100445.13
2022-10-14T23:42:39.765Z,100442.50
2022-10-14T23:45:10.219Z,100435.44
2022-10-14T23:47:39.183Z,100445.63
2022-10-14T23:50:10.461Z,100443.66
2022-10-14T23:52:39.491Z,100440.06
2022-10-14T23:55:09.291Z,100448.78
2022-10-14T23:57:38.257Z,100442.56
